createdAt,value
2019-05-23T00:02:05.680Z,8.93
2019-05-23T00:04:21.008Z,10.43
2019-05-23T00:06:28.966Z,11.00
2019-05-23T00:08:38.128Z,12.97
2019-05-23T00:10:53.839Z,10.20
2019-05-23T00:13:04.488Z,13.90
2019-05-23T00:15:20.914Z,11.17
2019-05-23T00:17:29.886Z,12.47
2019-05-23T00:19:38.545Z,12.80
2019-05-23T00:21:46.422Z,12.30
2019-05-23T00:23:54.927Z,11.30
2019-05-23T00:26:04.872Z,11.53
2019-05-23T00:28:13.124Z,10.67
2019-05-23T00:30:30.114Z,13.10
2019-05-23T00:32:43.544Z,8.93
2019-05-23T00:34:53.646Z,14.83
2019-05-23T00:37:02.582Z,11.03
2019-05-23T00:39:11.935Z,8.50
2019-05-23T00:41:21.376Z,15.60
2019-05-23T00:43:31.114Z,10.10
2019-05-23T00:45:39.311Z,12.73
2019-05-23T00:47:48.029Z,11.47
2019-05-23T00:49:56.207Z,17.03
2019-05-23T00:52:03.849Z,11.30
2019-05-23T00:54:11.531Z,9.43
2019-05-23T00:56:20.639Z,14.33
2019-05-23T00:58:30.052Z,11.03
2019-05-23T01:00:39.686Z,13.57
2019-05-23T01:02:48.113Z,12.43
2019-05-23T01:04:56.267Z,12.93
2019-05-23T01:07:04.216Z,12.13
2019-05-23T01:09:13.497Z,12.40
2019-05-23T01:11:21.765Z,15.80
2019-05-23T01:13:30.134Z,12.50
2019-05-23T01:15:39.922Z,13.27
2019-05-23T01:17:48.936Z,18.20
2019-05-23T01:19:57.126Z,9.53
2019-05-23T01:22:07.980Z,11.63
2019-05-23T01:24:22.593Z,9.23
2019-05-23T01:26:30.341Z,10.07
2019-05-23T01:28:37.832Z,11.70
2019-05-23T01:30:47.973Z,11.73
2019-05-23T01:32:57.521Z,15.43
2019-05-23T01:35:07.469Z,9.30
2019-05-23T01:37:15.989Z,12.60
2019-05-23T01:39:23.424Z,11.10
2019-05-23T01:41:31.975Z,10.93
2019-05-23T01:43:40.138Z,13.17
2019-05-23T01:45:48.349Z,14.90
2019-05-23T01:47:56.379Z,9.80
2019-05-23T01:50:04.779Z,10.17
2019-05-23T01:52:13.565Z,12.10
2019-05-23T01:54:22.387Z,12.23
2019-05-23T01:56:30.737Z,9.40
2019-05-23T01:58:38.578Z,12.53
2019-05-23T02:00:47.563Z,9.10
2019-05-23T02:02:56.179Z,11.30
2019-05-23T02:05:04.857Z,10.97
2019-05-23T02:07:13.964Z,12.43
2019-05-23T02:09:21.505Z,12.60
2019-05-23T02:11:30.133Z,14.73
2019-05-23T02:13:38.035Z,14.87
2019-05-23T02:15:45.921Z,10.77
2019-05-23T02:17:54.277Z,11.53
2019-05-23T02:20:02.589Z,13.80
2019-05-23T02:22:10.763Z,17.57
2019-05-23T02:24:18.635Z,13.90
2019-05-23T02:26:26.991Z,14.50
2019-05-23T02:28:36.024Z,12.80
2019-05-23T02:30:44.018Z,14.37
2019-05-23T02:32:53.027Z,14.67
2019-05-23T02:35:00.551Z,14.97
2019-05-23T02:37:17.188Z,16.50
2019-05-23T02:39:42.499Z,16.07
2019-05-23T02:42:08.694Z,16.13
2019-05-23T02:44:23.766Z,21.17
2019-05-23T02:46:38.467Z,22.70
2019-05-23T02:48:48.657Z,12.67
2019-05-23T02:51:02.834Z,14.50
2019-05-23T02:53:15.091Z,11.93
2019-05-23T02:55:36.153Z,13.97
2019-05-23T02:57:47.148Z,14.00
2019-05-23T03:00:01.235Z,14.07
2019-05-23T03:03:02.689Z,14.43
2019-05-23T03:05:14.231Z,11.73
2019-05-23T03:07:26.870Z,10.57
2019-05-23T03:09:39.406Z,11.33
2019-05-23T03:11:49.293Z,11.23
2019-05-23T03:13:58.047Z,9.80
2019-05-23T03:16:07.938Z,11.40
2019-05-23T03:18:18.067Z,11.67
2019-05-23T03:20:26.695Z,12.63
2019-05-23T03:22:49.141Z,11.20
2019-05-23T03:24:59.794Z,10.57
2019-05-23T03:27:15.495Z,11.27
2019-05-23T03:29:23.892Z,11.17
2019-05-23T03:31:37.113Z,12.87
2019-05-23T03:33:46.009Z,11.47
2019-05-23T03:35:57.080Z,10.97
2019-05-23T03:38:05.672Z,12.57
2019-05-23T03:40:15.397Z,15.37
2019-05-23T03:42:23.921Z,10.23
2019-05-23T03:44:31.689Z,10.20
2019-05-23T03:46:44.757Z,10.13
2019-05-23T03:48:53.321Z,11.73
2019-05-23T03:51:03.039Z,15.43
2019-05-23T03:53:10.955Z,13.73
2019-05-23T03:55:20.057Z,11.03
2019-05-23T03:57:28.708Z,12.50
2019-05-23T03:59:36.242Z,14.10
2019-05-23T04:01:49.022Z,11.57
2019-05-23T04:03:58.903Z,12.17
2019-05-23T04:06:07.119Z,15.50
2019-05-23T04:08:15.534Z,14.60
2019-05-23T04:10:23.828Z,11.60
2019-05-23T04:12:31.640Z,13.13
2019-05-23T04:14:39.566Z,11.33
2019-05-23T04:16:47.949Z,11.20
2019-05-23T04:18:55.413Z,14.33
2019-05-23T04:21:03.396Z,10.10
2019-05-23T04:23:11.326Z,12.43
2019-05-23T04:25:19.425Z,10.63
2019-05-23T04:27:27.615Z,10.60
2019-05-23T04:29:35.147Z,11.50
2019-05-23T04:31:42.942Z,11.90
2019-05-23T04:33:50.699Z,11.87
2019-05-23T04:35:58.110Z,12.13
2019-05-23T04:38:06.131Z,10.63
2019-05-23T04:40:15.772Z,15.43
2019-05-23T04:42:23.844Z,15.80
2019-05-23T04:44:31.474Z,12.30
2019-05-23T04:46:39.165Z,12.10
2019-05-23T04:48:46.784Z,13.70
2019-05-23T04:50:54.423Z,13.57
2019-05-23T04:53:02.515Z,13.17
2019-05-23T04:55:12.184Z,13.67
2019-05-23T04:57:21.123Z,12.30
2019-05-23T04:59:28.958Z,13.70
2019-05-23T05:01:37.467Z,12.57
2019-05-23T05:03:47.098Z,13.83
2019-05-23T05:05:54.932Z,13.77
2019-05-23T05:08:02.509Z,12.90
2019-05-23T05:10:13.468Z,14.87
2019-05-23T05:12:22.624Z,14.50
2019-05-23T05:14:30.379Z,15.57
2019-05-23T05:16:37.991Z,16.27
2019-05-23T05:18:45.443Z,14.50
2019-05-23T05:20:53.121Z,14.07
2019-05-23T05:23:01.017Z,15.47
2019-05-23T05:25:10.837Z,20.03
2019-05-23T05:27:19.769Z,16.00
2019-05-23T05:29:27.630Z,18.90
2019-05-23T05:31:35.020Z,14.37
2019-05-23T05:33:42.702Z,15.53
2019-05-23T05:35:50.578Z,17.90
2019-05-23T05:37:58.602Z,14.70
2019-05-23T05:40:07.506Z,18.67
2019-05-23T05:42:15.090Z,15.63
2019-05-23T05:44:22.674Z,17.13
2019-05-23T05:46:30.820Z,19.57
2019-05-23T05:48:38.516Z,13.00
2019-05-23T05:50:46.211Z,19.83
2019-05-23T05:52:54.128Z,13.57
2019-05-23T05:55:01.916Z,19.43
2019-05-23T05:57:09.937Z,16.73
2019-05-23T05:59:17.728Z,14.80
2019-05-23T06:01:33.948Z,16.27
2019-05-23T06:03:34.857Z,21.42
2019-05-23T06:05:58.704Z,18.00
2019-05-23T06:08:08.164Z,16.53
2019-05-23T06:10:17.205Z,17.73
2019-05-23T06:12:25.472Z,19.10
2019-05-23T06:14:33.328Z,20.47
2019-05-23T06:16:43.129Z,18.90
2019-05-23T06:18:50.730Z,17.90
2019-05-23T06:20:59.583Z,15.47
2019-05-23T06:23:07.019Z,18.10
2019-05-23T06:25:15.176Z,16.20
2019-05-23T06:27:23.238Z,17.00
2019-05-23T06:29:30.887Z,17.17
2019-05-23T06:31:39.276Z,18.62
2019-05-23T06:33:47.792Z,19.03
2019-05-23T06:35:55.915Z,16.57
2019-05-23T06:38:03.441Z,21.37
2019-05-23T06:40:12.635Z,18.20
2019-05-23T06:42:20.663Z,18.07
2019-05-23T06:44:28.361Z,18.57
2019-05-23T06:46:36.126Z,19.20
2019-05-23T06:48:45.694Z,15.47
2019-05-23T06:50:52.966Z,15.63
2019-05-23T06:53:01.224Z,18.27
2019-05-23T06:55:09.209Z,11.35
2019-05-23T06:57:17.922Z,14.70
2019-05-23T06:59:25.532Z,13.48
2019-05-23T07:01:33.580Z,12.18
2019-05-23T07:03:43.641Z,17.60
2019-05-23T07:05:51.229Z,12.20
2019-05-23T07:07:58.892Z,13.83
2019-05-23T07:10:08.661Z,15.48
2019-05-23T07:12:16.768Z,12.53
2019-05-23T07:14:24.595Z,12.03
2019-05-23T07:16:32.106Z,13.80
2019-05-23T07:18:40.863Z,13.13
2019-05-23T07:20:48.418Z,13.08
2019-05-23T07:22:56.078Z,13.70
2019-05-23T07:25:03.829Z,13.25
2019-05-23T07:27:11.818Z,14.20
2019-05-23T07:29:20.017Z,13.23
2019-05-23T07:31:27.554Z,10.90
2019-05-23T07:33:35.180Z,10.70
2019-05-23T07:35:42.940Z,10.40
2019-05-23T07:37:50.739Z,10.40
2019-05-23T07:39:58.553Z,11.65
2019-05-23T07:42:06.630Z,9.60
2019-05-23T07:44:14.635Z,14.33
2019-05-23T07:46:22.307Z,11.83
2019-05-23T07:48:30.987Z,10.98
2019-05-23T07:50:38.409Z,10.00
2019-05-23T07:52:46.475Z,11.43
2019-05-23T07:55:08.393Z,13.68
2019-05-23T07:57:16.765Z,12.78
2019-05-23T07:59:24.560Z,10.03
2019-05-23T08:01:34.230Z,10.90
2019-05-23T08:03:42.072Z,13.28
2019-05-23T08:05:49.616Z,14.20
2019-05-23T08:07:57.697Z,10.60
2019-05-23T08:10:06.981Z,11.93
2019-05-23T08:12:14.903Z,12.03
2019-05-23T08:14:22.961Z,9.55
2019-05-23T08:16:30.989Z,8.35
2019-05-23T08:18:39.391Z,10.28
2019-05-23T08:20:48.512Z,12.33
2019-05-23T08:22:56.085Z,12.30
2019-05-23T08:25:03.826Z,11.12
2019-05-23T08:27:12.289Z,10.53
2019-05-23T08:29:27.692Z,12.15
2019-05-23T08:31:29.876Z,12.00
2019-05-23T08:33:38.224Z,13.18
2019-05-23T08:35:46.587Z,13.03
2019-05-23T08:37:55.043Z,9.98
2019-05-23T08:40:03.152Z,15.15
2019-05-23T08:42:10.708Z,10.80
2019-05-23T08:44:19.039Z,11.70
2019-05-23T08:46:27.003Z,11.27
2019-05-23T08:48:34.978Z,12.78
2019-05-23T08:50:42.586Z,13.08
2019-05-23T08:52:50.300Z,13.38
2019-05-23T08:55:03.414Z,12.55
2019-05-23T08:57:13.020Z,17.32
2019-05-23T08:59:20.785Z,10.85
2019-05-23T09:01:29.224Z,11.95
2019-05-23T09:03:37.522Z,13.65
2019-05-23T09:05:47.282Z,16.60
2019-05-23T09:07:56.034Z,18.87
2019-05-23T09:10:04.460Z,17.77
2019-05-23T09:12:12.437Z,20.57
2019-05-23T09:14:20.726Z,16.52
2019-05-23T09:16:28.454Z,19.45
2019-05-23T09:18:36.095Z,20.50
2019-05-23T09:20:43.746Z,20.95
2019-05-23T09:22:51.817Z,24.87
2019-05-23T09:24:59.314Z,18.85
2019-05-23T09:27:07.702Z,19.02
2019-05-23T09:29:15.471Z,18.92
2019-05-23T09:31:24.700Z,19.37
2019-05-23T09:33:32.447Z,19.23
2019-05-23T09:35:40.424Z,18.75
2019-05-23T09:37:49.257Z,17.48
2019-05-23T09:39:57.698Z,19.92
2019-05-23T09:42:05.657Z,18.42
2019-05-23T09:44:13.457Z,20.30
2019-05-23T09:46:21.400Z,20.80
2019-05-23T09:48:29.728Z,17.87
2019-05-23T09:50:37.452Z,20.12
2019-05-23T09:52:45.207Z,24.98
2019-05-23T09:54:52.679Z,23.95
2019-05-23T09:57:00.470Z,22.82
2019-05-23T09:59:09.040Z,22.60
2019-05-23T10:01:18.993Z,21.30
2019-05-23T10:03:26.606Z,20.27
2019-05-23T10:05:42.892Z,23.38
2019-05-23T10:07:43.518Z,24.37
2019-05-23T10:09:51.336Z,23.52
2019-05-23T10:11:59.154Z,25.08
2019-05-23T10:14:11.239Z,26.25
2019-05-23T10:16:19.116Z,25.30
2019-05-23T10:18:26.685Z,19.60
2019-05-23T10:20:36.159Z,16.90
2019-05-23T10:22:43.673Z,17.02
2019-05-23T10:24:51.571Z,18.92
2019-05-23T10:26:59.359Z,27.27
2019-05-23T10:29:07.171Z,23.47
2019-05-23T10:31:15.477Z,27.05
2019-05-23T10:33:23.086Z,24.55
2019-05-23T10:35:31.597Z,24.72
2019-05-23T10:37:39.145Z,22.67
2019-05-23T10:39:53.752Z,23.05
2019-05-23T10:42:01.367Z,23.42
2019-05-23T10:44:09.417Z,24.37
2019-05-23T10:46:17.170Z,21.85
2019-05-23T10:48:25.723Z,32.60
2019-05-23T10:50:44.317Z,36.48
2019-05-23T10:52:42.918Z,39.48
2019-05-23T10:54:50.456Z,42.62
2019-05-23T10:56:58.126Z,36.70
2019-05-23T10:59:06.920Z,40.60
2019-05-23T11:01:15.278Z,41.85
2019-05-23T11:03:24.239Z,36.20
2019-05-23T11:05:31.963Z,36.98
2019-05-23T11:07:40.163Z,36.08
2019-05-23T11:09:48.040Z,36.00
2019-05-23T11:11:55.842Z,34.83
2019-05-23T11:14:08.247Z,33.25
2019-05-23T11:16:13.631Z,32.10
2019-05-23T11:18:21.785Z,31.02
2019-05-23T11:20:29.612Z,30.02
2019-05-23T11:22:37.258Z,34.83
2019-05-23T11:24:44.961Z,26.45
2019-05-23T11:26:53.073Z,28.90
2019-05-23T11:29:01.287Z,28.70
2019-05-23T11:31:10.808Z,24.72
2019-05-23T11:33:19.372Z,24.50
2019-05-23T11:35:27.607Z,21.95
2019-05-23T11:37:35.453Z,21.52
2019-05-23T11:39:49.587Z,22.07
2019-05-23T11:41:52.873Z,22.65
2019-05-23T11:44:00.638Z,23.47
2019-05-23T11:46:21.684Z,17.55
2019-05-23T11:48:30.106Z,16.65
2019-05-23T11:50:37.526Z,19.65
2019-05-23T11:52:45.321Z,20.70
2019-05-23T11:54:53.388Z,21.02
2019-05-23T11:57:01.623Z,18.32
2019-05-23T11:59:09.353Z,18.32
2019-05-23T12:01:22.454Z,17.60
2019-05-23T12:03:30.376Z,17.32
2019-05-23T12:05:38.106Z,13.90
2019-05-23T12:07:47.096Z,15.20
2019-05-23T12:09:54.825Z,13.68
2019-05-23T12:12:02.736Z,14.75
2019-05-23T12:14:11.586Z,12.40
2019-05-23T12:16:21.867Z,15.78
2019-05-23T12:18:29.653Z,16.83
2019-05-23T12:20:37.134Z,18.85
2019-05-23T12:22:44.860Z,15.47
2019-05-23T12:24:52.455Z,8.93
2019-05-23T12:27:00.031Z,10.73
2019-05-23T12:29:07.872Z,10.03
2019-05-23T12:31:16.096Z,8.53
2019-05-23T12:33:23.720Z,13.23
2019-05-23T12:35:31.399Z,9.95
2019-05-23T12:37:39.130Z,17.10
2019-05-23T12:39:46.713Z,21.70
2019-05-23T12:41:54.213Z,17.52
2019-05-23T12:44:02.270Z,33.53
2019-05-23T12:46:10.167Z,18.40
2019-05-23T12:48:27.263Z,39.17
2019-05-23T12:50:41.043Z,42.97
2019-05-23T12:52:50.090Z,20.90
2019-05-23T12:54:57.538Z,24.37
2019-05-23T12:57:06.045Z,23.00
2019-05-23T12:59:14.802Z,22.73
2019-05-23T13:01:24.801Z,29.40
2019-05-23T13:03:33.461Z,24.47
2019-05-23T13:05:42.270Z,21.63
2019-05-23T13:07:50.339Z,22.03
2019-05-23T13:09:58.297Z,21.07
2019-05-23T13:12:06.334Z,27.00
2019-05-23T13:14:14.949Z,25.88
2019-05-23T13:16:22.961Z,29.83
2019-05-23T13:18:31.026Z,28.33
2019-05-23T13:20:38.991Z,27.97
2019-05-23T13:22:47.071Z,28.63
2019-05-23T13:24:54.979Z,30.67
2019-05-23T13:27:03.607Z,24.17
2019-05-23T13:29:11.735Z,30.47
2019-05-23T13:31:21.403Z,33.43
2019-05-23T13:33:29.544Z,29.27
2019-05-23T13:35:37.322Z,26.00
2019-05-23T13:37:53.799Z,29.33
2019-05-23T13:39:54.856Z,31.07
2019-05-23T13:42:02.699Z,29.13
2019-05-23T13:44:29.608Z,29.00
2019-05-23T13:46:20.602Z,29.90
2019-05-23T13:48:28.920Z,31.33
2019-05-23T13:50:37.940Z,32.85
2019-05-23T13:52:46.619Z,30.25
2019-05-23T13:54:54.563Z,29.77
2019-05-23T13:57:02.740Z,30.17
2019-05-23T13:59:11.241Z,28.40
2019-05-23T14:01:20.125Z,33.08
2019-05-23T14:03:28.368Z,32.75
2019-05-23T14:05:36.322Z,33.27
2019-05-23T14:07:44.197Z,28.55
2019-05-23T14:09:52.350Z,26.73
2019-05-23T14:12:20.090Z,29.37
2019-05-23T14:14:11.684Z,27.35
2019-05-23T14:16:19.689Z,34.70
2019-05-23T14:18:28.645Z,28.80
2019-05-23T14:20:36.569Z,29.52
2019-05-23T14:22:49.492Z,27.90
2019-05-23T14:24:58.485Z,25.40
2019-05-23T14:27:16.928Z,28.63
2019-05-23T14:29:24.766Z,32.00
2019-05-23T14:31:38.534Z,29.50
2019-05-23T14:34:11.414Z,27.60
2019-05-23T14:36:35.992Z,26.77
2019-05-23T14:38:44.902Z,29.52
2019-05-23T14:40:53.058Z,27.90
2019-05-23T14:43:12.580Z,28.63
2019-05-23T14:45:42.626Z,27.27
2019-05-23T14:48:11.711Z,29.00
2019-05-23T14:50:34.361Z,27.60
2019-05-23T14:52:44.070Z,28.20
2019-05-23T14:54:56.257Z,30.73
2019-05-23T14:57:05.586Z,32.20
2019-05-23T14:59:13.492Z,28.57
2019-05-23T15:01:21.408Z,31.30
2019-05-23T15:03:30.263Z,28.12
2019-05-23T15:05:39.725Z,29.70
2019-05-23T15:07:47.337Z,27.67
2019-05-23T15:09:55.193Z,33.97
2019-05-23T15:12:02.910Z,27.53
2019-05-23T15:14:10.778Z,23.73
2019-05-23T15:16:21.116Z,29.57
2019-05-23T15:18:28.739Z,28.27
2019-05-23T15:20:36.262Z,28.37
2019-05-23T15:22:44.057Z,26.33
2019-05-23T15:24:51.745Z,28.13
2019-05-23T15:26:59.539Z,27.30
2019-05-23T15:29:10.227Z,24.87
2019-05-23T15:31:18.326Z,26.40
2019-05-23T15:33:26.126Z,29.37
2019-05-23T15:35:34.884Z,29.67
2019-05-23T15:37:42.853Z,28.25
2019-05-23T15:39:50.867Z,27.55
2019-05-23T15:41:58.341Z,27.80
2019-05-23T15:44:22.696Z,23.70
2019-05-23T15:46:15.971Z,23.40
2019-05-23T15:48:23.757Z,24.20
2019-05-23T15:50:37.786Z,27.97
2019-05-23T15:53:10.422Z,24.40
2019-05-23T15:55:36.650Z,23.83
2019-05-23T15:57:49.413Z,28.97
2019-05-23T16:00:15.921Z,25.43
2019-05-23T16:02:28.190Z,29.73
2019-05-23T16:04:36.965Z,24.00
2019-05-23T16:06:45.116Z,28.27
2019-05-23T16:09:25.611Z,28.87
2019-05-23T16:11:19.781Z,28.10
2019-05-23T16:13:29.408Z,31.93
2019-05-23T16:15:37.388Z,23.77
2019-05-23T16:17:45.478Z,24.77
2019-05-23T16:19:53.617Z,26.83
2019-05-23T16:22:01.530Z,26.77
2019-05-23T16:24:09.898Z,25.80
2019-05-23T16:26:18.285Z,29.43
2019-05-23T16:28:26.140Z,23.02
2019-05-23T16:30:34.611Z,31.57
2019-05-23T16:32:42.241Z,27.27
2019-05-23T16:34:49.999Z,25.40
2019-05-23T16:36:57.873Z,23.80
2019-05-23T16:39:08.181Z,28.77
2019-05-23T16:41:16.230Z,28.37
2019-05-23T16:43:23.935Z,27.57
2019-05-23T16:45:32.224Z,23.10
2019-05-23T16:47:39.852Z,29.73
2019-05-23T16:49:47.892Z,24.90
2019-05-23T16:51:56.046Z,26.73
2019-05-23T16:54:05.255Z,32.28
2019-05-23T16:56:21.582Z,26.62
2019-05-23T16:58:49.344Z,28.27
2019-05-23T17:01:24.053Z,27.50
2019-05-23T17:03:38.362Z,30.05
2019-05-23T17:06:07.478Z,30.47
2019-05-23T17:08:31.308Z,36.13
2019-05-23T17:11:02.086Z,26.42
2019-05-23T17:13:34.574Z,35.17
2019-05-23T17:16:07.268Z,30.52
2019-05-23T17:18:39.613Z,37.50
2019-05-23T17:20:58.934Z,30.93
2019-05-23T17:23:16.569Z,36.20
2019-05-23T17:25:46.941Z,31.83
2019-05-23T17:28:13.481Z,30.70
2019-05-23T17:30:47.363Z,32.85
2019-05-23T17:32:56.738Z,38.88
2019-05-23T17:35:05.147Z,32.53
2019-05-23T17:37:14.584Z,33.00
2019-05-23T17:39:24.182Z,32.53
2019-05-23T17:41:32.347Z,34.70
2019-05-23T17:43:40.032Z,29.20
2019-05-23T17:45:48.438Z,34.43
2019-05-23T17:47:58.208Z,29.30
2019-05-23T17:50:09.360Z,35.73
2019-05-23T17:52:18.149Z,30.00
2019-05-23T17:54:26.514Z,31.30
2019-05-23T17:56:34.036Z,28.23
2019-05-23T17:58:42.153Z,25.20
2019-05-23T18:00:51.094Z,33.25
2019-05-23T18:02:59.297Z,26.12
2019-05-23T18:05:08.511Z,26.73
2019-05-23T18:07:17.834Z,27.75
2019-05-23T18:09:25.973Z,23.07
2019-05-23T18:11:35.428Z,25.50
2019-05-23T18:13:46.060Z,27.43
2019-05-23T18:15:56.049Z,23.97
2019-05-23T18:18:04.526Z,35.77
2019-05-23T18:20:14.474Z,22.97
2019-05-23T18:22:22.774Z,21.47
2019-05-23T18:24:31.702Z,21.17
2019-05-23T18:26:39.500Z,24.23
2019-05-23T18:28:47.621Z,21.80
2019-05-23T18:31:07.412Z,22.60
2019-05-23T18:33:13.527Z,22.97
2019-05-23T18:35:21.797Z,24.10
2019-05-23T18:37:29.984Z,23.87
2019-05-23T18:39:38.598Z,26.62
2019-05-23T18:41:48.043Z,23.50
2019-05-23T18:43:57.072Z,26.30
2019-05-23T18:46:08.915Z,26.40
2019-05-23T18:48:16.865Z,25.53
2019-05-23T18:50:25.611Z,28.37
2019-05-23T18:52:34.337Z,30.13
2019-05-23T18:54:42.665Z,31.70
2019-05-23T18:56:51.258Z,26.77
2019-05-23T18:58:59.824Z,28.50
2019-05-23T19:01:35.511Z,31.63
2019-05-23T19:03:44.735Z,28.27
2019-05-23T19:05:53.031Z,28.57
2019-05-23T19:08:01.609Z,26.57
2019-05-23T19:10:10.396Z,26.57
2019-05-23T19:12:18.702Z,27.77
2019-05-23T19:14:27.594Z,34.33
2019-05-23T19:16:37.062Z,32.43
2019-05-23T19:18:45.677Z,33.50
2019-05-23T19:20:55.569Z,26.83
2019-05-23T19:23:03.932Z,26.00
2019-05-23T19:25:13.140Z,23.67
2019-05-23T19:27:21.224Z,27.80
2019-05-23T19:29:29.465Z,30.20
2019-05-23T19:31:38.039Z,27.57
2019-05-23T19:33:49.358Z,25.83
2019-05-23T19:35:58.939Z,25.37
2019-05-23T19:38:07.111Z,25.03
2019-05-23T19:40:16.947Z,24.97
2019-05-23T19:42:25.215Z,29.03
2019-05-23T19:44:33.500Z,26.10
2019-05-23T19:46:42.389Z,27.50
2019-05-23T19:48:51.153Z,25.17
2019-05-23T19:50:58.972Z,30.37
2019-05-23T19:53:07.391Z,26.57
2019-05-23T19:55:15.916Z,28.47
2019-05-23T19:57:24.074Z,30.17
2019-05-23T19:59:34.757Z,26.90
2019-05-23T20:02:01.314Z,27.27
2019-05-23T20:04:10.556Z,29.90
2019-05-23T20:06:19.098Z,23.37
2019-05-23T20:08:27.373Z,26.50
2019-05-23T20:10:36.847Z,27.53
2019-05-23T20:12:45.106Z,28.23
2019-05-23T20:14:53.113Z,27.97
2019-05-23T20:17:01.156Z,28.23
2019-05-23T20:19:09.786Z,26.63
2019-05-23T20:21:18.677Z,28.70
2019-05-23T20:23:26.609Z,24.87
2019-05-23T20:25:34.709Z,25.73
2019-05-23T20:27:42.896Z,29.17
2019-05-23T20:29:51.289Z,23.43
2019-05-23T20:31:58.954Z,22.40
2019-05-23T20:34:07.786Z,25.47
2019-05-23T20:36:17.868Z,24.63
2019-05-23T20:38:26.728Z,24.00
2019-05-23T20:40:35.720Z,28.03
2019-05-23T20:42:43.937Z,25.63
2019-05-23T20:44:51.969Z,24.87
2019-05-23T20:46:59.890Z,24.67
2019-05-23T20:49:08.876Z,23.60
2019-05-23T20:51:17.060Z,37.07
2019-05-23T20:53:25.288Z,27.50
2019-05-23T20:55:33.598Z,27.20
2019-05-23T20:57:41.282Z,25.67
2019-05-23T20:59:49.185Z,23.27
2019-05-23T21:01:56.782Z,24.07
2019-05-23T21:04:06.018Z,18.97
2019-05-23T21:06:15.204Z,22.30
2019-05-23T21:08:23.556Z,20.83
2019-05-23T21:10:50.190Z,25.43
2019-05-23T21:12:57.721Z,31.50
2019-05-23T21:15:05.636Z,27.20
2019-05-23T21:17:13.550Z,28.03
2019-05-23T21:19:21.044Z,21.47
2019-05-23T21:21:28.696Z,25.77
2019-05-23T21:23:36.927Z,30.87
2019-05-23T21:26:01.333Z,23.57
2019-05-23T21:28:09.559Z,23.77
2019-05-23T21:30:17.541Z,20.40
2019-05-23T21:32:25.336Z,21.30
2019-05-23T21:34:33.438Z,24.03
2019-05-23T21:36:40.920Z,18.37
2019-05-23T21:38:48.726Z,20.07
2019-05-23T21:40:56.511Z,23.07
2019-05-23T21:43:04.840Z,23.67
2019-05-23T21:45:13.289Z,21.83
2019-05-23T21:47:20.825Z,25.23
2019-05-23T21:49:29.269Z,23.40
2019-05-23T21:51:37.002Z,19.77
2019-05-23T21:53:44.481Z,23.87
2019-05-23T21:55:52.419Z,19.30
2019-05-23T21:58:00.302Z,17.20
2019-05-23T22:00:12.263Z,21.67
2019-05-23T22:02:26.730Z,19.93
2019-05-23T22:05:03.052Z,16.33
2019-05-23T22:07:10.782Z,17.77
2019-05-23T22:09:18.553Z,19.33
2019-05-23T22:11:27.432Z,19.90
2019-05-23T22:13:35.173Z,16.27
2019-05-23T22:15:42.764Z,20.63
2019-05-23T22:17:50.906Z,16.13
2019-05-23T22:19:58.594Z,18.97
2019-05-23T22:22:07.117Z,16.67
2019-05-23T22:24:15.052Z,17.47
2019-05-23T22:26:22.718Z,17.30
2019-05-23T22:28:30.436Z,17.37
2019-05-23T22:30:38.159Z,15.40
2019-05-23T22:32:46.522Z,17.83
2019-05-23T22:35:06.514Z,17.87
2019-05-23T22:37:20.462Z,18.47
2019-05-23T22:39:28.412Z,13.87
2019-05-23T22:41:37.056Z,15.30
2019-05-23T22:43:44.798Z,17.40
2019-05-23T22:45:53.067Z,18.97
2019-05-23T22:48:01.097Z,14.37
2019-05-23T22:50:08.962Z,13.57
2019-05-23T22:52:16.541Z,15.80
2019-05-23T22:54:24.243Z,14.20
2019-05-23T22:56:31.836Z,15.53
2019-05-23T22:58:39.476Z,13.80
2019-05-23T23:00:48.700Z,14.60
2019-05-23T23:02:56.256Z,14.20
2019-05-23T23:05:03.727Z,13.70
2019-05-23T23:07:11.532Z,13.43
2019-05-23T23:09:19.438Z,16.40
2019-05-23T23:11:27.017Z,16.47
2019-05-23T23:13:38.705Z,14.87
2019-05-23T23:15:44.353Z,14.33
2019-05-23T23:17:52.265Z,16.70
2019-05-23T23:19:59.722Z,12.17
2019-05-23T23:22:10.394Z,18.97
2019-05-23T23:24:17.938Z,13.73
2019-05-23T23:26:25.333Z,15.53
2019-05-23T23:28:33.265Z,18.23
2019-05-23T23:30:42.443Z,10.53
2019-05-23T23:32:50.115Z,11.37
2019-05-23T23:34:57.495Z,12.80
2019-05-23T23:37:05.071Z,13.37
2019-05-23T23:39:12.538Z,14.00
2019-05-23T23:41:19.974Z,9.30
2019-05-23T23:43:27.437Z,16.20
2019-05-23T23:45:52.311Z,12.73
2019-05-23T23:48:17.514Z,9.37
2019-05-23T23:50:42.544Z,11.57
2019-05-23T23:53:07.476Z,12.00
2019-05-23T23:55:32.458Z,12.97
2019-05-23T23:57:58.102Z,12.23
